Huvudsida
METAR-TAF:

METAR-TAF

Flygplatser :

N'Djamena, Tchad

latitud: 12-08N, longitud: 015-02E, höjd: 295 m

Aktuellt väderrapport

Denna rapport gjordes för 26 minuter sedan, klockan 01:00 UTC
Vind 1 kt från nord/nordväst
Temperatur 28°C
Fuktighet 55%
Tryck 1007 hPa
Sikt 10 km eller mer
Inga moln under 1 500 m eller inga cumulonimbus

METAR: FTTJ 230100Z 33001KT CAVOK 28/18 Q1007 NOSIG

Tid: 02:26 (01:26 UTC)

Väderprognos

Denna rapport gjordes för 2 timmar och 26 minuter sedan, klockan 23:00 UTC
Prognos gäller från 23 kl. 00 UTC till 24 kl. 06 UTC
Vind 6 kt från väst
Sikt 10 km eller mer
Inga moln under 1 500 m eller inga cumulonimbus
Blir
från 23 kl. 07 UTC till 23 kl. 09 UTC
Vind 10 kt från syd/sydväst
Sannolikhet 30% :
Temporärt
från 23 kl. 14 UTC till 23 kl. 19 UTC
Vind 15 kt varierande vindriktning i byarna ända upp till 30 kt
Sikt: 3000 m
högt damm drev, åska

TAF: FTTJ 222300Z 2300/2406 26006KT CAVOK BECMG 2307/2309 20010KT PROB30 TEMPO 2314/2319 VRB15G30KT 3000 BLDU TS

Aktuella väderrapporter och prognoser från 4000 flygplatser (METAR- och TAF-rapporter).

De tillgängliga stationerna syns som gula och röda prickar på kartan.

För musen över prickarna för att se namnen på stationerna.

Klicka sedan för att få väderrapporter och prognoser.

För att ändra kartan: Klicka på de gröna knapparna med ett svart kors på för att zooma in; den gröna knappen med ett streck på för att zooma ut; eller på de gröna pilarna för angränsande kartor.


METAR-TAF: